x

Shumagin Islands - 85nm South Of Sand Point, Ak (46075) Wave Buoy

2:50 - Sat 26th Jul 2014 All times are UTC.

  • Sig Wave height 5.2ft
  • Peak Period 6s
  • Average Period 5s
  • Wind
    13mph, 20mph gusts
  • Sea Temp 55°f
  • Luft Temp 57°f
  • Sea Pressure 1017mb

More Historic Weather Station data

Upgrade to MSW Pro to gain access to the past 30 days of data for over 8000 Wavebouys and Weather Stations around the globe.

Join Pro

Comparision Forecast

View Surf forecast
   
Sa 07/26 2:50 5ft 6s 5s 13 20 mph 1017mb 55f 57f
1:50 5.5ft 6s 5s 18 20 mph 1017.1mb 55f 56f
12:50 6ft 6s 5s 16 20 mph 1017.4mb 55f 56f
Fr 07/25 11:50 5ft 7s 5s 20 25 mph 1016.9mb 55f 56f
10:50 5ft 6s 5s 20 25 mph 1017.1mb 55f 55f
9:50 5.5ft 7s 5s 18 22 mph 1016.7mb 55f 55f
8:50 6ft 6s 5s 13 18 mph 1017.4mb 55f 55f
7:50 6ft 7s 5s 18 25 mph 1016.8mb 55f 55f
6:50 5ft 7s 5s 13 18 mph 1017.3mb 55f 55f
5:50 5.5ft 6s 5s 9 11 mph 1017.2mb 54f 55f
4:50 6ft 7s 6s 13 16 mph 1016.3mb 54f 54f
3:50 6ft 8s 5s 18 22 mph 1016.1mb 54f 53f
2:50 6ft 7s 5s 16 22 mph 1016.4mb 54f 54f
1:50 6ft 7s 5s 20 25 mph 1015.9mb 54f 54f
12:50 5ft 7s 5s 20 25 mph 1015.9mb 54f 54f
11:50 6ft 8s 5s 16 18 mph 1016.3mb 54f 54f
10:50 5.5ft 8s 5s 20 25 mph 1016mb 55f 54f
9:50 5.5ft 7s 5s 20 25 mph 1016mb 55f 54f
8:50 5.5ft 7s 5s 16 22 mph 1016mb 54f 54f
7:50 5ft 7s 5s 16 18 mph 1016.3mb 54f 54f
6:50 5ft 8s 5s 18 22 mph 1015.9mb 54f 54f
5:50 5ft 7s 5s 16 20 mph 1016mb 54f 54f
4:50 6ft 6s 5s 16 18 mph 1015.7mb 55f 55f
3:50 6ft 7s 5s 13 16 mph 1015.7mb 55f 54f
2:50 5.5ft 6s 5s 18 20 mph 1015.9mb 55f 54f
1:50 5ft 7s 5s 20 22 mph 1015.7mb 55f 54f
12:50 6ft 7s 5s 18 22 mph 1015.7mb 54f 54f
Do 07/24 11:50 5ft 6s 5s 18 22 mph 1015.9mb 54f 53f
10:50 5ft 7s 5s 18 22 mph 1016.1mb 54f 53f
9:50 5ft 7s 5s 16 18 mph 1016.4mb 54f 54f
8:50 5ft 7s 5s 18 22 mph 1016.2mb 54f 53f
7:50 5ft 6s 5s 20 25 mph 1016.1mb 54f 53f
6:50 5ft 6s 5s 20 25 mph 1016.2mb 54f 53f
5:50 5.5ft 7s 5s 22 25 mph 1016.6mb 54f 53f
4:50 6ft 6s 5s 25 29 mph 1016.8mb 54f 53f
3:50 6.5ft 6s 5s 25 31 mph 1017.1mb 54f 53f
2:50 6ft 6s 5s 22 27 mph 1017.2mb 54f 53f
1:50 5.5ft 7s 5s 22 27 mph 1017.5mb 54f 53f
12:50 5ft 7s 5s 18 22 mph 1018mb 54f 53f
11:50 5ft 7s 5s 18 22 mph 1018.3mb 54f 53f
10:50 4.5ft 6s 5s 18 20 mph 1018.6mb 54f 53f
9:50 5ft 7s 5s 16 20 mph 1019mb 54f 53f
8:50 5ft 8s 5s 18 22 mph 1019.2mb 55f 54f
7:50 4.5ft 7s 5s 18 22 mph 1019.1mb 55f 54f
6:50 5ft 7s 5s 16 20 mph 1019.1mb 55f 54f
5:50 4.5ft 6s 5s 18 22 mph 1019.1mb 55f 54f
4:50 5.5ft 6s 5s 20 22 mph 1019.1mb 55f 54f
3:50 6ft 7s 5s 22 27 mph 1019.3mb 54f 54f
2:50 6ft 7s 5s 22 25 mph 1019.2mb 54f 54f
1:50 6ft 7s 5s 22 27 mph 1019.4mb 54f 54f
12:50 6.5ft 7s 5s 22 27 mph 1019.6mb 54f 54f
Mi 07/23 11:50 6.5ft 7s 5s 20 27 mph 1019.8mb 54f 54f
10:50 6ft 6s 5s 20 22 mph 1019.8mb 54f 54f
9:50 6.5ft 7s 6s 20 25 mph 1019.9mb 54f 54f
8:50 6.5ft 7s 6s 18 20 mph 1019.9mb 54f 54f
7:50 6ft 7s 5s 20 22 mph 1019.7mb 54f 54f
6:50 6.5ft 6s 5s 20 25 mph 1019.7mb 53f 53f
5:50 6ft 7s 5s 20 25 mph 1019.5mb 53f 53f
4:50 6.5ft 6s 5s 25 29 mph 1019.1mb 53f 54f
3:50 6ft 6s 5s 22 27 mph 1019.2mb 53f 53f
2:50 5.5ft 6s 5s 22 27 mph 1019mb 53f 54f
1:50 5.5ft 6s 5s 22 29 mph 1018.9mb 53f 54f
12:50 5ft 7s 5s 18 22 mph 1019mb 53f 54f
11:50 5.5ft 7s 5s 16 18 mph 1019.3mb 54f 54f
10:50 5ft 6s 5s 18 20 mph 1019.3mb 54f 54f
9:50 5.5ft 7s 5s 20 22 mph 1019.3mb 54f 54f
8:50 5.5ft 7s 5s 18 22 mph 1019.2mb 55f 54f
7:50 5ft 7s 5s 16 18 mph 1019.1mb 55f 54f
6:50 5ft 7s 5s 16 18 mph 1019mb 55f 55f
5:50 5ft 6s 5s 16 20 mph 1018.8mb 55f 55f
4:50 5ft 7s 5s 13 18 mph 1018.7mb 55f 55f
3:50 5ft 7s 5s 16 20 mph 1018.9mb 55f 54f
2:50 5ft 7s 5s 18 22 mph 1019mb 55f 55f
1:50 6ft 6s 5s 18 22 mph 1018.9mb 55f 55f
12:50 6.5ft 6s 5s 18 22 mph 1019.1mb 55f 54f
Di 07/22 11:50 5.5ft 7s 5s 20 25 mph 1019.1mb 55f 54f
10:50 6ft 7s 5s 20 25 mph 1019.2mb 55f 52f
9:50 6ft 6s 5s 20 25 mph 1019.3mb 55f 53f
8:50 6ft 6s 5s 20 25 mph 1019.3mb 55f 54f
7:50 6ft 6s 5s 20 22 mph 1019mb 55f 54f
6:50 6.5ft 7s 5s 20 25 mph 1019.1mb 55f 54f
5:50 6ft 7s 5s 22 27 mph 1019.2mb 55f 54f
4:50 6ft 7s 5s 16 20 mph 1019mb 55f 53f
3:50 6ft 6s 5s 18 25 mph 1019mb 55f 54f
2:50 6.5ft 6s 5s 22 27 mph 1019.3mb 55f 54f
1:50 6ft 6s 5s 25 27 mph 1019.5mb 55f 53f
12:50 5.5ft 6s 5s 20 27 mph 1019.7mb 55f 54f
11:50 5ft 7s 5s 20 27 mph 1019.8mb 55f 54f
10:50 5ft 6s 5s 18 22 mph 1020.1mb 55f 54f
9:50 5ft 6s 5s 20 22 mph 1020.2mb 55f 54f
8:50 5ft 6s 5s 16 20 mph 1020.2mb 55f 54f
7:50 5ft 6s 5s 16 20 mph 1020.2mb 55f 54f
6:50 5ft 6s 5s 18 20 mph 1020.2mb 55f 54f
5:50 4.5ft 5s 5s 18 22 mph 1020.3mb 55f 53f
4:50 4.5ft 5s 5s 18 20 mph 1019.9mb 55f 53f
3:50 4.5ft 5s 5s 18 20 mph 1019.6mb 55f 53f